sensor_id;sensor_type;location;lat;lon;timestamp;P1;durP1;ratioP1;P2;durP2;ratioP2
67904;SDS011;54709;43.614;1.576;2023-03-01T00:01:47;17.98;;;12.55;;
67904;SDS011;54709;43.614;1.576;2023-03-01T00:04:12;18.48;;;12.88;;
67904;SDS011;54709;43.614;1.576;2023-03-01T00:06:38;17.15;;;12.68;;
67904;SDS011;54709;43.614;1.576;2023-03-01T00:09:03;17.52;;;12.85;;
67904;SDS011;54709;43.614;1.576;2023-03-01T00:11:30;18.20;;;11.27;;
67904;SDS011;54709;43.614;1.576;2023-03-01T00:13:57;16.52;;;12.07;;
67904;SDS011;54709;43.614;1.576;2023-03-01T00:16:27;18.48;;;12.68;;
67904;SDS011;54709;43.614;1.576;2023-03-01T00:21:21;17.33;;;12.45;;
67904;SDS011;54709;43.614;1.576;2023-03-01T00:23:47;18.80;;;12.05;;
67904;SDS011;54709;43.614;1.576;2023-03-01T00:26:14;19.20;;;13.25;;
67904;SDS011;54709;43.614;1.576;2023-03-01T00:28:40;21.60;;;14.63;;
67904;SDS011;54709;43.614;1.576;2023-03-01T00:31:07;24.02;;;14.40;;
67904;SDS011;54709;43.614;1.576;2023-03-01T00:33:39;19.13;;;13.57;;
67904;SDS011;54709;43.614;1.576;2023-03-01T00:36:05;21.65;;;14.27;;
67904;SDS011;54709;43.614;1.576;2023-03-01T00:38:34;22.10;;;14.75;;
67904;SDS011;54709;43.614;1.576;2023-03-01T00:41:06;20.95;;;14.20;;
67904;SDS011;54709;43.614;1.576;2023-03-01T00:43:33;19.38;;;14.20;;
67904;SDS011;54709;43.614;1.576;2023-03-01T00:46:04;22.70;;;13.82;;
67904;SDS011;54709;43.614;1.576;2023-03-01T00:48:31;18.17;;;13.45;;
67904;SDS011;54709;43.614;1.576;2023-03-01T00:50:57;20.83;;;13.88;;
67904;SDS011;54709;43.614;1.576;2023-03-01T00:53:22;19.17;;;12.75;;
67904;SDS011;54709;43.614;1.576;2023-03-01T00:55:47;20.27;;;13.13;;
67904;SDS011;54709;43.614;1.576;2023-03-01T00:58:13;18.10;;;13.02;;
67904;SDS011;54709;43.614;1.576;2023-03-01T01:00:38;16.67;;;11.75;;
67904;SDS011;54709;43.614;1.576;2023-03-01T01:03:03;17.48;;;11.90;;
67904;SDS011;54709;43.614;1.576;2023-03-01T01:05:29;17.23;;;11.98;;
67904;SDS011;54709;43.614;1.576;2023-03-01T01:07:54;16.17;;;11.57;;
67904;SDS011;54709;43.614;1.576;2023-03-01T01:10:20;15.52;;;11.10;;
67904;SDS011;54709;43.614;1.576;2023-03-01T01:12:45;16.98;;;11.27;;
67904;SDS011;54709;43.614;1.576;2023-03-01T01:15:11;16.80;;;10.48;;
67904;SDS011;54709;43.614;1.576;2023-03-01T01:17:39;14.20;;;9.90;;
67904;SDS011;54709;43.614;1.576;2023-03-01T01:20:05;17.50;;;10.73;;
67904;SDS011;54709;43.614;1.576;2023-03-01T01:22:31;16.83;;;10.65;;
67904;SDS011;54709;43.614;1.576;2023-03-01T01:24:56;16.08;;;10.68;;
67904;SDS011;54709;43.614;1.576;2023-03-01T01:27:22;16.00;;;10.50;;
67904;SDS011;54709;43.614;1.576;2023-03-01T01:29:47;14.80;;;10.68;;
67904;SDS011;54709;43.614;1.576;2023-03-01T01:32:13;15.30;;;11.05;;
67904;SDS011;54709;43.614;1.576;2023-03-01T01:34:38;15.63;;;11.05;;
67904;SDS011;54709;43.614;1.576;2023-03-01T01:37:03;15.50;;;11.70;;
67904;SDS011;54709;43.614;1.576;2023-03-01T01:39:32;14.50;;;10.73;;
67904;SDS011;54709;43.614;1.576;2023-03-01T01:41:59;17.27;;;10.80;;
67904;SDS011;54709;43.614;1.576;2023-03-01T01:44:26;18.50;;;11.10;;
67904;SDS011;54709;43.614;1.576;2023-03-01T01:46:53;15.50;;;10.57;;
67904;SDS011;54709;43.614;1.576;2023-03-01T01:49:24;15.50;;;10.98;;
67904;SDS011;54709;43.614;1.576;2023-03-01T01:52:00;17.33;;;10.27;;
67904;SDS011;54709;43.614;1.576;2023-03-01T01:54:41;15.25;;;10.50;;
67904;SDS011;54709;43.614;1.576;2023-03-01T01:57:18;12.73;;;9.63;;
67904;SDS011;54709;43.614;1.576;2023-03-01T01:59:47;14.70;;;9.88;;
67904;SDS011;54709;43.614;1.576;2023-03-01T02:02:17;16.30;;;9.55;;
67904;SDS011;54709;43.614;1.576;2023-03-01T02:04:43;12.70;;;9.38;;
67904;SDS011;54709;43.614;1.576;2023-03-01T02:07:16;16.85;;;9.98;;
67904;SDS011;54709;43.614;1.576;2023-03-01T02:09:45;13.88;;;10.00;;
67904;SDS011;54709;43.614;1.576;2023-03-01T02:12:12;14.32;;;9.40;;
67904;SDS011;54709;43.614;1.576;2023-03-01T02:14:39;13.15;;;9.80;;
67904;SDS011;54709;43.614;1.576;2023-03-01T02:17:04;13.65;;;9.52;;
67904;SDS011;54709;43.614;1.576;2023-03-01T02:30:15;13.18;;;10.07;;
67904;SDS011;54709;43.614;1.576;2023-03-01T02:32:41;12.32;;;9.32;;
67904;SDS011;54709;43.614;1.576;2023-03-01T02:35:10;14.73;;;10.23;;
67904;SDS011;54709;43.614;1.576;2023-03-01T02:37:39;13.60;;;9.75;;
67904;SDS011;54709;43.614;1.576;2023-03-01T02:40:06;12.48;;;9.60;;
67904;SDS011;54709;43.614;1.576;2023-03-01T02:42:37;13.07;;;9.52;;
67904;SDS011;54709;43.614;1.576;2023-03-01T02:45:08;17.15;;;10.48;;
67904;SDS011;54709;43.614;1.576;2023-03-01T02:47:35;13.75;;;9.77;;
67904;SDS011;54709;43.614;1.576;2023-03-01T02:50:01;13.77;;;9.45;;
67904;SDS011;54709;43.614;1.576;2023-03-01T02:55:10;14.38;;;9.60;;
67904;SDS011;54709;43.614;1.576;2023-03-01T02:57:43;13.65;;;9.13;;
67904;SDS011;54709;43.614;1.576;2023-03-01T03:00:13;15.60;;;10.10;;
67904;SDS011;54709;43.614;1.576;2023-03-01T03:02:47;13.93;;;10.00;;
67904;SDS011;54709;43.614;1.576;2023-03-01T03:05:18;13.05;;;9.40;;
67904;SDS011;54709;43.614;1.576;2023-03-01T03:07:46;13.98;;;9.90;;
67904;SDS011;54709;43.614;1.576;2023-03-01T03:10:14;17.27;;;10.35;;
67904;SDS011;54709;43.614;1.576;2023-03-01T03:12:41;15.07;;;10.20;;
67904;SDS011;54709;43.614;1.576;2023-03-01T03:15:08;14.00;;;10.07;;
67904;SDS011;54709;43.614;1.576;2023-03-01T03:17:36;18.17;;;10.55;;
67904;SDS011;54709;43.614;1.576;2023-03-01T03:20:02;15.00;;;11.02;;
67904;SDS011;54709;43.614;1.576;2023-03-01T03:22:29;20.10;;;11.40;;
67904;SDS011;54709;43.614;1.576;2023-03-01T03:24:55;17.48;;;10.63;;
67904;SDS011;54709;43.614;1.576;2023-03-01T03:27:20;16.48;;;11.23;;
67904;SDS011;54709;43.614;1.576;2023-03-01T03:29:45;15.88;;;10.77;;
67904;SDS011;54709;43.614;1.576;2023-03-01T03:32:11;16.20;;;11.52;;
67904;SDS011;54709;43.614;1.576;2023-03-01T03:34:36;16.40;;;11.82;;
67904;SDS011;54709;43.614;1.576;2023-03-01T03:37:01;19.80;;;11.90;;
67904;SDS011;54709;43.614;1.576;2023-03-01T03:39:27;18.85;;;12.80;;
67904;SDS011;54709;43.614;1.576;2023-03-01T03:41:53;17.95;;;12.55;;
67904;SDS011;54709;43.614;1.576;2023-03-01T03:44:19;18.90;;;12.48;;
67904;SDS011;54709;43.614;1.576;2023-03-01T03:46:45;18.92;;;12.65;;
67904;SDS011;54709;43.614;1.576;2023-03-01T03:49:11;18.58;;;13.15;;
67904;SDS011;54709;43.614;1.576;2023-03-01T03:51:36;17.65;;;12.48;;
67904;SDS011;54709;43.614;1.576;2023-03-01T03:54:01;17.67;;;12.77;;
67904;SDS011;54709;43.614;1.576;2023-03-01T03:56:27;21.35;;;12.90;;
67904;SDS011;54709;43.614;1.576;2023-03-01T03:58:52;17.65;;;12.60;;
67904;SDS011;54709;43.614;1.576;2023-03-01T04:01:18;16.23;;;11.57;;
67904;SDS011;54709;43.614;1.576;2023-03-01T04:03:43;18.02;;;12.27;;
67904;SDS011;54709;43.614;1.576;2023-03-01T04:06:12;16.60;;;12.30;;
67904;SDS011;54709;43.614;1.576;2023-03-01T04:08:39;18.30;;;12.20;;
67904;SDS011;54709;43.614;1.576;2023-03-01T04:11:04;17.02;;;11.75;;
67904;SDS011;54709;43.614;1.576;2023-03-01T04:13:49;17.67;;;11.45;;
67904;SDS011;54709;43.614;1.576;2023-03-01T04:16:15;15.65;;;11.38;;
67904;SDS011;54709;43.614;1.576;2023-03-01T04:18:43;16.85;;;12.23;;
67904;SDS011;54709;43.614;1.576;2023-03-01T04:21:08;15.55;;;11.20;;
67904;SDS011;54709;43.614;1.576;2023-03-01T04:23:35;16.83;;;12.18;;
67904;SDS011;54709;43.614;1.576;2023-03-01T04:26:01;18.95;;;12.40;;
67904;SDS011;54709;43.614;1.576;2023-03-01T04:28:27;26.80;;;19.17;;
67904;SDS011;54709;43.614;1.576;2023-03-01T04:30:57;24.85;;;17.42;;
67904;SDS011;54709;43.614;1.576;2023-03-01T04:33:23;23.67;;;16.88;;
67904;SDS011;54709;43.614;1.576;2023-03-01T04:35:49;22.98;;;16.60;;
67904;SDS011;54709;43.614;1.576;2023-03-01T04:38:16;22.50;;;15.32;;
67904;SDS011;54709;43.614;1.576;2023-03-01T04:40:42;22.02;;;14.23;;
67904;SDS011;54709;43.614;1.576;2023-03-01T04:43:08;20.33;;;13.35;;
67904;SDS011;54709;43.614;1.576;2023-03-01T04:45:34;22.73;;;13.38;;
67904;SDS011;54709;43.614;1.576;2023-03-01T04:47:59;17.30;;;12.60;;
67904;SDS011;54709;43.614;1.576;2023-03-01T04:50:25;17.40;;;12.77;;
67904;SDS011;54709;43.614;1.576;2023-03-01T04:52:50;15.35;;;12.50;;
67904;SDS011;54709;43.614;1.576;2023-03-01T04:55:16;17.25;;;12.45;;
67904;SDS011;54709;43.614;1.576;2023-03-01T04:57:42;19.08;;;12.70;;
67904;SDS011;54709;43.614;1.576;2023-03-01T05:00:08;20.35;;;13.70;;
67904;SDS011;54709;43.614;1.576;2023-03-01T05:05:18;26.10;;;18.23;;
67904;SDS011;54709;43.614;1.576;2023-03-01T05:07:55;21.05;;;14.82;;
67904;SDS011;54709;43.614;1.576;2023-03-01T05:10:22;19.85;;;14.82;;
67904;SDS011;54709;43.614;1.576;2023-03-01T05:12:47;23.45;;;15.73;;
67904;SDS011;54709;43.614;1.576;2023-03-01T05:15:13;24.60;;;16.98;;
67904;SDS011;54709;43.614;1.576;2023-03-01T05:17:39;25.73;;;17.30;;
67904;SDS011;54709;43.614;1.576;2023-03-01T05:20:04;23.02;;;16.17;;
67904;SDS011;54709;43.614;1.576;2023-03-01T05:22:36;22.38;;;14.95;;
67904;SDS011;54709;43.614;1.576;2023-03-01T05:25:02;22.60;;;15.55;;
67904;SDS011;54709;43.614;1.576;2023-03-01T05:27:28;19.92;;;14.60;;
67904;SDS011;54709;43.614;1.576;2023-03-01T05:29:54;23.83;;;15.70;;
67904;SDS011;54709;43.614;1.576;2023-03-01T05:32:20;25.63;;;16.27;;
67904;SDS011;54709;43.614;1.576;2023-03-01T05:34:45;22.45;;;16.75;;
67904;SDS011;54709;43.614;1.576;2023-03-01T05:37:11;22.33;;;15.25;;
67904;SDS011;54709;43.614;1.576;2023-03-01T05:39:37;21.83;;;15.10;;
67904;SDS011;54709;43.614;1.576;2023-03-01T05:42:02;19.67;;;13.65;;
67904;SDS011;54709;43.614;1.576;2023-03-01T05:44:28;21.85;;;14.07;;
67904;SDS011;54709;43.614;1.576;2023-03-01T05:46:54;18.48;;;13.30;;
67904;SDS011;54709;43.614;1.576;2023-03-01T05:49:20;21.33;;;13.45;;
67904;SDS011;54709;43.614;1.576;2023-03-01T05:51:49;19.85;;;13.02;;
67904;SDS011;54709;43.614;1.576;2023-03-01T05:54:16;20.70;;;13.40;;
67904;SDS011;54709;43.614;1.576;2023-03-01T05:56:42;20.20;;;13.43;;
67904;SDS011;54709;43.614;1.576;2023-03-01T05:59:08;17.85;;;12.82;;
67904;SDS011;54709;43.614;1.576;2023-03-01T06:01:34;19.48;;;12.75;;
67904;SDS011;54709;43.614;1.576;2023-03-01T06:04:00;18.52;;;12.82;;
67904;SDS011;54709;43.614;1.576;2023-03-01T06:06:26;19.20;;;12.90;;
67904;SDS011;54709;43.614;1.576;2023-03-01T06:08:52;19.15;;;13.05;;
67904;SDS011;54709;43.614;1.576;2023-03-01T06:11:18;18.25;;;13.10;;
67904;SDS011;54709;43.614;1.576;2023-03-01T06:13:44;20.48;;;13.50;;
67904;SDS011;54709;43.614;1.576;2023-03-01T06:16:10;19.73;;;13.35;;
67904;SDS011;54709;43.614;1.576;2023-03-01T06:18:36;21.10;;;14.02;;
67904;SDS011;54709;43.614;1.576;2023-03-01T06:21:02;20.23;;;13.60;;
67904;SDS011;54709;43.614;1.576;2023-03-01T06:23:28;19.00;;;13.35;;
67904;SDS011;54709;43.614;1.576;2023-03-01T06:25:54;20.13;;;13.82;;
67904;SDS011;54709;43.614;1.576;2023-03-01T06:28:19;22.35;;;13.20;;
67904;SDS011;54709;43.614;1.576;2023-03-01T06:30:44;17.65;;;13.43;;
67904;SDS011;54709;43.614;1.576;2023-03-01T06:33:10;21.52;;;13.35;;
67904;SDS011;54709;43.614;1.576;2023-03-01T06:35:36;20.60;;;13.10;;
67904;SDS011;54709;43.614;1.576;2023-03-01T06:38:02;19.35;;;13.75;;
67904;SDS011;54709;43.614;1.576;2023-03-01T06:40:28;18.67;;;13.50;;
67904;SDS011;54709;43.614;1.576;2023-03-01T06:42:54;17.65;;;12.73;;
67904;SDS011;54709;43.614;1.576;2023-03-01T06:45:20;20.48;;;13.18;;
67904;SDS011;54709;43.614;1.576;2023-03-01T06:47:46;20.02;;;13.82;;
67904;SDS011;54709;43.614;1.576;2023-03-01T06:50:11;18.50;;;12.90;;
67904;SDS011;54709;43.614;1.576;2023-03-01T06:52:37;18.65;;;13.10;;
67904;SDS011;54709;43.614;1.576;2023-03-01T06:55:04;17.60;;;13.23;;
67904;SDS011;54709;43.614;1.576;2023-03-01T06:57:30;21.42;;;14.05;;
67904;SDS011;54709;43.614;1.576;2023-03-01T06:59:55;20.33;;;13.38;;
67904;SDS011;54709;43.614;1.576;2023-03-01T07:02:21;20.13;;;12.77;;
67904;SDS011;54709;43.614;1.576;2023-03-01T07:04:46;19.88;;;12.48;;
67904;SDS011;54709;43.614;1.576;2023-03-01T07:07:14;18.38;;;12.98;;
67904;SDS011;54709;43.614;1.576;2023-03-01T07:09:39;19.60;;;13.90;;
67904;SDS011;54709;43.614;1.576;2023-03-01T07:12:05;20.65;;;13.48;;
67904;SDS011;54709;43.614;1.576;2023-03-01T07:14:30;20.90;;;13.18;;
67904;SDS011;54709;43.614;1.576;2023-03-01T07:16:56;19.70;;;13.88;;
67904;SDS011;54709;43.614;1.576;2023-03-01T07:19:21;19.08;;;12.73;;
67904;SDS011;54709;43.614;1.576;2023-03-01T07:21:47;17.08;;;13.05;;
67904;SDS011;54709;43.614;1.576;2023-03-01T07:24:13;22.83;;;15.75;;
67904;SDS011;54709;43.614;1.576;2023-03-01T07:26:38;28.95;;;18.88;;
67904;SDS011;54709;43.614;1.576;2023-03-01T07:29:04;40.33;;;25.33;;
67904;SDS011;54709;43.614;1.576;2023-03-01T07:31:31;39.17;;;24.35;;
67904;SDS011;54709;43.614;1.576;2023-03-01T07:33:57;44.05;;;26.98;;
67904;SDS011;54709;43.614;1.576;2023-03-01T07:36:22;45.25;;;26.83;;
67904;SDS011;54709;43.614;1.576;2023-03-01T07:38:48;43.67;;;25.55;;
67904;SDS011;54709;43.614;1.576;2023-03-01T07:41:14;47.72;;;27.00;;
67904;SDS011;54709;43.614;1.576;2023-03-01T07:43:39;38.67;;;25.05;;
67904;SDS011;54709;43.614;1.576;2023-03-01T07:46:05;38.97;;;23.75;;
67904;SDS011;54709;43.614;1.576;2023-03-01T07:48:31;39.35;;;21.65;;
67904;SDS011;54709;43.614;1.576;2023-03-01T07:50:58;34.90;;;21.25;;
67904;SDS011;54709;43.614;1.576;2023-03-01T07:53:24;31.15;;;19.95;;
67904;SDS011;54709;43.614;1.576;2023-03-01T07:55:50;27.65;;;18.55;;
67904;SDS011;54709;43.614;1.576;2023-03-01T07:58:16;29.02;;;19.60;;
67904;SDS011;54709;43.614;1.576;2023-03-01T08:00:41;32.33;;;20.77;;
67904;SDS011;54709;43.614;1.576;2023-03-01T08:03:06;38.30;;;22.00;;
67904;SDS011;54709;43.614;1.576;2023-03-01T08:05:32;37.17;;;21.50;;
67904;SDS011;54709;43.614;1.576;2023-03-01T08:07:57;29.58;;;20.50;;
67904;SDS011;54709;43.614;1.576;2023-03-01T08:10:22;26.73;;;17.90;;
67904;SDS011;54709;43.614;1.576;2023-03-01T08:12:50;23.90;;;17.08;;
67904;SDS011;54709;43.614;1.576;2023-03-01T08:15:16;21.63;;;15.15;;
67904;SDS011;54709;43.614;1.576;2023-03-01T08:17:43;21.35;;;14.27;;
67904;SDS011;54709;43.614;1.576;2023-03-01T08:20:09;22.10;;;13.77;;
67904;SDS011;54709;43.614;1.576;2023-03-01T08:22:37;19.15;;;13.23;;
67904;SDS011;54709;43.614;1.576;2023-03-01T08:25:02;18.20;;;12.30;;
67904;SDS011;54709;43.614;1.576;2023-03-01T08:27:28;21.25;;;12.60;;
67904;SDS011;54709;43.614;1.576;2023-03-01T08:29:53;16.40;;;12.60;;
67904;SDS011;54709;43.614;1.576;2023-03-01T08:32:19;17.58;;;12.23;;
67904;SDS011;54709;43.614;1.576;2023-03-01T08:34:46;17.25;;;11.38;;
67904;SDS011;54709;43.614;1.576;2023-03-01T08:37:12;14.48;;;11.02;;
67904;SDS011;54709;43.614;1.576;2023-03-01T08:39:37;14.25;;;11.00;;
67904;SDS011;54709;43.614;1.576;2023-03-01T08:42:03;15.25;;;11.10;;
67904;SDS011;54709;43.614;1.576;2023-03-01T08:44:28;16.02;;;10.38;;
67904;SDS011;54709;43.614;1.576;2023-03-01T08:46:53;18.40;;;12.20;;
67904;SDS011;54709;43.614;1.576;2023-03-01T08:49:20;18.17;;;11.68;;
67904;SDS011;54709;43.614;1.576;2023-03-01T08:51:46;13.48;;;10.05;;
67904;SDS011;54709;43.614;1.576;2023-03-01T08:54:13;15.18;;;10.40;;
67904;SDS011;54709;43.614;1.576;2023-03-01T08:56:40;15.18;;;10.48;;
67904;SDS011;54709;43.614;1.576;2023-03-01T08:59:05;17.17;;;10.68;;
67904;SDS011;54709;43.614;1.576;2023-03-01T09:01:31;16.10;;;10.73;;
67904;SDS011;54709;43.614;1.576;2023-03-01T09:03:56;15.10;;;10.68;;
67904;SDS011;54709;43.614;1.576;2023-03-01T09:06:22;14.63;;;10.48;;
67904;SDS011;54709;43.614;1.576;2023-03-01T09:08:48;14.00;;;9.82;;
67904;SDS011;54709;43.614;1.576;2023-03-01T09:11:18;14.63;;;9.63;;
67904;SDS011;54709;43.614;1.576;2023-03-01T09:13:45;12.70;;;10.13;;
67904;SDS011;54709;43.614;1.576;2023-03-01T09:16:12;13.75;;;8.95;;
67904;SDS011;54709;43.614;1.576;2023-03-01T09:18:39;12.13;;;9.73;;
67904;SDS011;54709;43.614;1.576;2023-03-01T09:21:05;13.90;;;10.52;;
67904;SDS011;54709;43.614;1.576;2023-03-01T09:23:35;12.48;;;10.25;;
67904;SDS011;54709;43.614;1.576;2023-03-01T09:26:09;13.48;;;10.05;;
67904;SDS011;54709;43.614;1.576;2023-03-01T09:28:44;11.43;;;9.10;;
67904;SDS011;54709;43.614;1.576;2023-03-01T09:31:10;12.95;;;9.15;;
67904;SDS011;54709;43.614;1.576;2023-03-01T09:33:37;12.57;;;9.77;;
67904;SDS011;54709;43.614;1.576;2023-03-01T09:36:04;12.50;;;8.32;;
67904;SDS011;54709;43.614;1.576;2023-03-01T09:38:32;12.48;;;9.30;;
67904;SDS011;54709;43.614;1.576;2023-03-01T09:40:57;13.55;;;9.68;;
67904;SDS011;54709;43.614;1.576;2023-03-01T09:43:31;15.23;;;10.43;;
67904;SDS011;54709;43.614;1.576;2023-03-01T09:46:19;11.52;;;9.00;;
67904;SDS011;54709;43.614;1.576;2023-03-01T09:48:48;13.13;;;9.27;;
67904;SDS011;54709;43.614;1.576;2023-03-01T09:51:17;14.25;;;9.88;;
67904;SDS011;54709;43.614;1.576;2023-03-01T09:53:44;17.08;;;10.18;;
67904;SDS011;54709;43.614;1.576;2023-03-01T09:56:16;12.13;;;9.48;;
67904;SDS011;54709;43.614;1.576;2023-03-01T10:04:37;12.15;;;8.50;;
67904;SDS011;54709;43.614;1.576;2023-03-01T10:09:43;11.88;;;9.52;;
67904;SDS011;54709;43.614;1.576;2023-03-01T10:12:10;11.00;;;7.70;;
67904;SDS011;54709;43.614;1.576;2023-03-01T10:14:39;10.50;;;8.13;;
67904;SDS011;54709;43.614;1.576;2023-03-01T10:19:43;11.07;;;7.72;;
67904;SDS011;54709;43.614;1.576;2023-03-01T10:22:13;9.27;;;7.85;;
67904;SDS011;54709;43.614;1.576;2023-03-01T10:24:46;7.47;;;6.72;;
67904;SDS011;54709;43.614;1.576;2023-03-01T10:27:22;9.45;;;7.00;;
67904;SDS011;54709;43.614;1.576;2023-03-01T10:32:38;8.25;;;6.25;;
67904;SDS011;54709;43.614;1.576;2023-03-01T10:38:25;8.38;;;6.90;;
67904;SDS011;54709;43.614;1.576;2023-03-01T10:40:33;8.93;;;6.53;;
67904;SDS011;54709;43.614;1.576;2023-03-01T10:43:04;9.05;;;6.35;;
67904;SDS011;54709;43.614;1.576;2023-03-01T10:45:37;6.78;;;5.90;;
67904;SDS011;54709;43.614;1.576;2023-03-01T10:50:29;7.93;;;6.07;;
67904;SDS011;54709;43.614;1.576;2023-03-01T10:52:59;9.07;;;6.07;;
67904;SDS011;54709;43.614;1.576;2023-03-01T10:55:39;7.78;;;6.18;;
67904;SDS011;54709;43.614;1.576;2023-03-01T11:03:36;7.03;;;5.70;;
67904;SDS011;54709;43.614;1.576;2023-03-01T11:08:29;8.75;;;6.20;;
67904;SDS011;54709;43.614;1.576;2023-03-01T11:11:07;6.32;;;5.32;;
67904;SDS011;54709;43.614;1.576;2023-03-01T11:13:39;6.57;;;5.85;;
67904;SDS011;54709;43.614;1.576;2023-03-01T11:16:12;7.47;;;5.95;;
67904;SDS011;54709;43.614;1.576;2023-03-01T11:18:38;6.88;;;6.07;;
67904;SDS011;54709;43.614;1.576;2023-03-01T11:21:03;7.38;;;6.30;;
67904;SDS011;54709;43.614;1.576;2023-03-01T11:23:30;9.10;;;5.97;;
67904;SDS011;54709;43.614;1.576;2023-03-01T11:25:57;6.65;;;5.78;;
67904;SDS011;54709;43.614;1.576;2023-03-01T11:28:24;7.32;;;5.75;;
67904;SDS011;54709;43.614;1.576;2023-03-01T11:36:44;8.77;;;6.30;;
67904;SDS011;54709;43.614;1.576;2023-03-01T11:44:34;8.15;;;6.18;;
67904;SDS011;54709;43.614;1.576;2023-03-01T11:55:00;7.43;;;6.40;;
67904;SDS011;54709;43.614;1.576;2023-03-01T12:08:23;7.10;;;6.30;;
67904;SDS011;54709;43.614;1.576;2023-03-01T12:35:29;8.52;;;5.90;;
67904;SDS011;54709;43.614;1.576;2023-03-01T12:43:14;7.20;;;5.90;;
67904;SDS011;54709;43.614;1.576;2023-03-01T12:45:54;6.25;;;5.53;;
67904;SDS011;54709;43.614;1.576;2023-03-01T12:51:17;6.82;;;5.85;;
67904;SDS011;54709;43.614;1.576;2023-03-01T12:53:46;7.25;;;5.50;;
67904;SDS011;54709;43.614;1.576;2023-03-01T12:56:14;6.10;;;5.07;;
67904;SDS011;54709;43.614;1.576;2023-03-01T12:58:55;6.38;;;5.40;;
67904;SDS011;54709;43.614;1.576;2023-03-01T13:17:49;5.95;;;5.13;;
67904;SDS011;54709;43.614;1.576;2023-03-01T13:20:17;8.07;;;5.72;;
67904;SDS011;54709;43.614;1.576;2023-03-01T13:22:46;8.13;;;5.00;;
67904;SDS011;54709;43.614;1.576;2023-03-01T13:27:42;6.35;;;5.43;;
67904;SDS011;54709;43.614;1.576;2023-03-01T13:35:52;6.97;;;5.43;;
67904;SDS011;54709;43.614;1.576;2023-03-01T13:41:04;7.43;;;5.57;;
67904;SDS011;54709;43.614;1.576;2023-03-01T13:45:57;6.93;;;5.78;;
67904;SDS011;54709;43.614;1.576;2023-03-01T13:48:29;6.05;;;5.45;;
67904;SDS011;54709;43.614;1.576;2023-03-01T13:50:59;6.72;;;5.50;;
67904;SDS011;54709;43.614;1.576;2023-03-01T13:53:26;7.45;;;5.65;;
67904;SDS011;54709;43.614;1.576;2023-03-01T13:55:56;8.55;;;5.78;;
67904;SDS011;54709;43.614;1.576;2023-03-01T13:58:28;7.43;;;5.95;;
67904;SDS011;54709;43.614;1.576;2023-03-01T14:01:20;6.88;;;5.65;;
67904;SDS011;54709;43.614;1.576;2023-03-01T14:03:54;7.03;;;5.43;;
67904;SDS011;54709;43.614;1.576;2023-03-01T14:06:21;7.03;;;5.80;;
67904;SDS011;54709;43.614;1.576;2023-03-01T14:08:49;8.23;;;5.50;;
67904;SDS011;54709;43.614;1.576;2023-03-01T14:19:12;6.25;;;5.00;;
67904;SDS011;54709;43.614;1.576;2023-03-01T14:21:44;6.20;;;5.35;;
67904;SDS011;54709;43.614;1.576;2023-03-01T14:24:17;7.05;;;5.28;;
67904;SDS011;54709;43.614;1.576;2023-03-01T14:26:45;6.97;;;5.95;;
67904;SDS011;54709;43.614;1.576;2023-03-01T14:32:21;7.15;;;5.57;;
67904;SDS011;54709;43.614;1.576;2023-03-01T14:34:47;6.63;;;5.40;;
67904;SDS011;54709;43.614;1.576;2023-03-01T14:37:20;7.07;;;5.82;;
67904;SDS011;54709;43.614;1.576;2023-03-01T14:39:49;6.30;;;5.70;;
67904;SDS011;54709;43.614;1.576;2023-03-01T14:42:15;6.70;;;5.40;;
67904;SDS011;54709;43.614;1.576;2023-03-01T14:44:45;5.82;;;5.20;;
67904;SDS011;54709;43.614;1.576;2023-03-01T14:47:12;6.15;;;5.22;;
67904;SDS011;54709;43.614;1.576;2023-03-01T14:49:48;7.03;;;5.63;;
67904;SDS011;54709;43.614;1.576;2023-03-01T14:52:26;6.28;;;5.63;;
67904;SDS011;54709;43.614;1.576;2023-03-01T14:54:59;7.85;;;5.00;;
67904;SDS011;54709;43.614;1.576;2023-03-01T14:57:27;5.78;;;4.90;;
67904;SDS011;54709;43.614;1.576;2023-03-01T14:59:54;6.93;;;5.15;;
67904;SDS011;54709;43.614;1.576;2023-03-01T15:02:21;6.45;;;5.43;;
67904;SDS011;54709;43.614;1.576;2023-03-01T15:04:51;7.03;;;5.75;;
67904;SDS011;54709;43.614;1.576;2023-03-01T15:07:18;7.25;;;5.50;;
67904;SDS011;54709;43.614;1.576;2023-03-01T15:09:44;5.57;;;5.07;;
67904;SDS011;54709;43.614;1.576;2023-03-01T15:14:54;6.15;;;5.20;;
67904;SDS011;54709;43.614;1.576;2023-03-01T15:17:26;6.40;;;5.03;;
67904;SDS011;54709;43.614;1.576;2023-03-01T15:19:56;6.20;;;5.00;;
67904;SDS011;54709;43.614;1.576;2023-03-01T15:22:21;6.25;;;4.93;;
67904;SDS011;54709;43.614;1.576;2023-03-01T15:24:48;7.85;;;5.50;;
67904;SDS011;54709;43.614;1.576;2023-03-01T15:27:22;5.88;;;4.95;;
67904;SDS011;54709;43.614;1.576;2023-03-01T15:29:49;7.07;;;5.25;;
67904;SDS011;54709;43.614;1.576;2023-03-01T15:32:37;7.53;;;5.18;;
67904;SDS011;54709;43.614;1.576;2023-03-01T15:40:54;6.05;;;5.00;;
67904;SDS011;54709;43.614;1.576;2023-03-01T15:46:44;7.00;;;5.68;;
67904;SDS011;54709;43.614;1.576;2023-03-01T15:49:18;6.45;;;5.28;;
67904;SDS011;54709;43.614;1.576;2023-03-01T15:51:46;6.25;;;5.10;;
67904;SDS011;54709;43.614;1.576;2023-03-01T15:54:21;7.07;;;5.35;;
67904;SDS011;54709;43.614;1.576;2023-03-01T15:56:49;6.43;;;5.57;;
67904;SDS011;54709;43.614;1.576;2023-03-01T15:59:15;6.38;;;5.00;;
67904;SDS011;54709;43.614;1.576;2023-03-01T16:01:42;7.35;;;6.22;;
67904;SDS011;54709;43.614;1.576;2023-03-01T16:04:09;6.40;;;5.70;;
67904;SDS011;54709;43.614;1.576;2023-03-01T16:06:38;7.47;;;6.10;;
67904;SDS011;54709;43.614;1.576;2023-03-01T16:09:04;7.47;;;5.68;;
67904;SDS011;54709;43.614;1.576;2023-03-01T16:11:29;7.10;;;6.03;;
67904;SDS011;54709;43.614;1.576;2023-03-01T16:13:57;7.68;;;5.93;;
67904;SDS011;54709;43.614;1.576;2023-03-01T16:16:22;6.97;;;6.07;;
67904;SDS011;54709;43.614;1.576;2023-03-01T16:18:48;7.93;;;6.13;;
67904;SDS011;54709;43.614;1.576;2023-03-01T16:21:14;6.32;;;5.65;;
67904;SDS011;54709;43.614;1.576;2023-03-01T16:23:42;9.73;;;6.40;;
67904;SDS011;54709;43.614;1.576;2023-03-01T16:26:09;6.82;;;6.13;;
67904;SDS011;54709;43.614;1.576;2023-03-01T16:28:35;7.97;;;6.03;;
67904;SDS011;54709;43.614;1.576;2023-03-01T16:31:00;8.15;;;6.07;;
67904;SDS011;54709;43.614;1.576;2023-03-01T16:33:26;7.47;;;6.18;;
67904;SDS011;54709;43.614;1.576;2023-03-01T16:35:52;8.63;;;6.55;;
67904;SDS011;54709;43.614;1.576;2023-03-01T16:38:17;10.80;;;6.50;;
67904;SDS011;54709;43.614;1.576;2023-03-01T16:40:46;8.60;;;6.93;;
67904;SDS011;54709;43.614;1.576;2023-03-01T16:43:12;7.47;;;6.47;;
67904;SDS011;54709;43.614;1.576;2023-03-01T16:45:38;7.47;;;6.55;;
67904;SDS011;54709;43.614;1.576;2023-03-01T16:48:05;8.63;;;6.15;;
67904;SDS011;54709;43.614;1.576;2023-03-01T16:50:31;9.10;;;7.03;;
67904;SDS011;54709;43.614;1.576;2023-03-01T16:52:56;8.25;;;7.10;;
67904;SDS011;54709;43.614;1.576;2023-03-01T16:55:22;8.65;;;6.90;;
67904;SDS011;54709;43.614;1.576;2023-03-01T16:57:48;9.70;;;6.32;;
67904;SDS011;54709;43.614;1.576;2023-03-01T17:00:13;10.63;;;6.97;;
67904;SDS011;54709;43.614;1.576;2023-03-01T17:02:40;8.90;;;7.10;;
67904;SDS011;54709;43.614;1.576;2023-03-01T17:05:06;7.38;;;6.60;;
67904;SDS011;54709;43.614;1.576;2023-03-01T17:07:32;8.38;;;6.82;;
67904;SDS011;54709;43.614;1.576;2023-03-01T17:09:59;7.75;;;6.95;;
67904;SDS011;54709;43.614;1.576;2023-03-01T17:12:25;9.50;;;7.45;;
67904;SDS011;54709;43.614;1.576;2023-03-01T17:14:51;9.70;;;7.03;;